Accueil
METAR-TAF:

METAR-TAF

Aéroports :

Vijayawada, Inde

latitude: 16-31-44N, longitude: 80-47-45E, altitude: 25 m

Observation

Le bulletin a été fait il y a 6 heures et 35 minutes, à 17:00 UTC
Vent calme
Température 24°C
Humidité 83%
Pression 1014 hPa
Visibilité: 3000 m
brume

METAR: VOBZ 251700Z 00000KT 3000 BR NSC 24/21 Q1014 NOSIG

Heure: 05:05 (23:35 UTC)

Prévision

Le bulletin a été fait il y a 15 heures et 35 minutes, à 08:00 UTC
Prévision valable du 25 à 09 UTC au 25 à 18 UTC
Vent 6 kt de sud/sud-est
Visibilité: 5000 m
Quelques nuages à une hauteur de 2000 ft
brume sèche
Temporairement
du 25 à 09 UTC au 25 à 15 UTC
Vent kt de nord
Visibilité: 3000 m
Nuages épars à une hauteur de 2000 ft
Quelques nuages à une hauteur de 2500 ft
brume

TAF: VOBZ 250800Z 2509/2518 16006KT 5000 HZ FEW020 TEMPO 2509/2515 12004KT SCT020 2513/2518 00000KT 3000 BR FEW025

Observations et prévisions météorologiques de plus de 4000 aéroports (messages METAR et TAF).

Les stations disponibles sont représentées par des disques jaunes et rouges sur la carte.

Passer la souris dessus pour voir le nom de la station.

Cliquer dessus pour voir les observations et prévisions météorologiques.

Pour changer de carte: cliquez sur les boutons verts avec une croix noire pour zoomer, sur le bouton vert avec un tiret pour effectuer un zoom arrière, ou sur les flèches vertes pour les cartes adjacentes.


METAR-TAF: